TimeEDT,TemperatureF,Dew PointF,Humidity,Sea Level PressureIn,VisibilityMPH,Wind Direction,Wind SpeedMPH,Gust SpeedMPH,PrecipitationIn,Events,Conditions,WindDirDegrees,DateUTC
12:14 AM,65.3,54.5,68,30.13,10.0,Calm,Calm,-,N/A,,Clear,0,2012-07-12 04:14:00
12:35 AM,63.5,54.7,73,30.13,10.0,Calm,Calm,-,N/A,,Clear,0,2012-07-12 04:35:00
12:54 AM,61.5,55.0,79,30.14,10.0,Calm,Calm,-,N/A,,Clear,0,2012-07-12 04:54:00
1:14 AM,61.7,55.8,81,30.14,10.0,Calm,Calm,-,N/A,,Clear,0,2012-07-12 05:14:00
1:35 AM,60.1,55.8,86,30.14,10.0,ESE,3.5,-,N/A,,Clear,110,2012-07-12 05:35:00
1:54 AM,60.4,56.8,88,30.13,10.0,SE,4.6,-,N/A,,Clear,130,2012-07-12 05:54:00
2:14 AM,61.2,57.4,87,30.14,10.0,ESE,3.5,-,N/A,,Clear,120,2012-07-12 06:14:00
2:34 AM,60.4,57.2,89,30.13,10.0,Calm,Calm,-,N/A,,Clear,0,2012-07-12 06:34:00
2:55 AM,58.1,55.9,93,30.13,10.0,Calm,Calm,-,N/A,,Clear,0,2012-07-12 06:55:00
3:14 AM,58.6,56.1,91,30.13,10.0,ESE,3.5,-,N/A,,Clear,120,2012-07-12 07:14:00
3:34 AM,58.6,55.9,91,30.13,10.0,SE,3.5,-,N/A,,Clear,140,2012-07-12 07:34:00
3:54 AM,59.9,56.7,89,30.12,10.0,SSE,3.5,-,N/A,,Clear,160,2012-07-12 07:54:00
4:14 AM,60.1,55.6,85,30.12,10.0,South,4.6,-,N/A,,Clear,180,2012-07-12 08:14:00
4:34 AM,63.5,56.7,78,30.11,10.0,SSE,4.6,-,N/A,,Clear,160,2012-07-12 08:34:00
4:54 AM,62.6,56.3,80,30.12,10.0,ESE,3.5,-,N/A,,Clear,120,2012-07-12 08:54:00
5:15 AM,60.8,57.0,87,30.12,10.0,East,3.5,-,N/A,,Clear,90,2012-07-12 09:15:00
5:34 AM,58.5,55.8,91,30.13,10.0,SE,4.6,-,N/A,,Clear,130,2012-07-12 09:34:00
5:54 AM,59.0,55.9,90,30.13,10.0,SE,5.8,-,N/A,,Clear,140,2012-07-12 09:54:00
6:14 AM,59.0,55.4,88,30.14,10.0,Calm,Calm,-,N/A,,Clear,0,2012-07-12 10:14:00
6:34 AM,58.8,55.4,88,30.13,10.0,SSE,5.8,-,N/A,,Mostly Cloudy,160,2012-07-12 10:34:00
6:54 AM,59.9,55.6,86,30.14,10.0,ENE,4.6,-,N/A,,Scattered Clouds,60,2012-07-12 10:54:00
7:14 AM,61.2,55.8,82,30.14,10.0,SSE,4.6,-,N/A,,Clear,150,2012-07-12 11:14:00
7:34 AM,65.1,55.6,71,30.14,10.0,SSE,4.6,-,N/A,,Clear,160,2012-07-12 11:34:00
7:54 AM,67.5,56.5,68,30.14,10.0,South,3.5,-,N/A,,Clear,170,2012-07-12 11:54:00
8:14 AM,69.4,56.5,63,30.15,10.0,South,3.5,-,N/A,,Clear,170,2012-07-12 12:14:00
8:35 AM,70.9,55.8,59,30.15,10.0,South,5.8,-,N/A,,Clear,190,2012-07-12 12:35:00
8:54 AM,72.5,56.7,57,30.16,10.0,South,6.9,-,N/A,,Clear,190,2012-07-12 12:54:00
9:14 AM,74.3,56.8,54,30.17,10.0,SW,5.8,-,N/A,,Clear,220,2012-07-12 13:14:00
9:35 AM,75.4,56.8,52,30.17,10.0,SSW,4.6,-,N/A,,Clear,200,2012-07-12 13:35:00
9:54 AM,77.0,55.8,48,30.17,10.0,SSW,6.9,-,N/A,,Clear,210,2012-07-12 13:54:00
10:14 AM,78.4,55.4,45,30.17,10.0,SW,5.8,-,N/A,,Clear,220,2012-07-12 14:14:00
10:35 AM,79.7,54.5,42,30.17,10.0,SSW,6.9,-,N/A,,Clear,210,2012-07-12 14:35:00
10:54 AM,79.3,52.3,39,30.17,10.0,SW,5.8,-,N/A,,Clear,220,2012-07-12 14:54:00
11:14 AM,80.2,51.6,37,30.17,10.0,WSW,8.1,-,N/A,,Clear,250,2012-07-12 15:14:00
11:34 AM,81.5,52.0,36,30.17,10.0,WSW,8.1,-,N/A,,Clear,250,2012-07-12 15:34:00
11:54 AM,82.0,52.5,36,30.17,10.0,West,9.2,-,N/A,,Clear,270,2012-07-12 15:54:00
12:15 PM,82.2,51.6,35,30.17,10.0,WSW,8.1,-,N/A,,Clear,250,2012-07-12 16:15:00
12:34 PM,82.2,52.5,36,30.16,10.0,West,9.2,-,N/A,,Clear,270,2012-07-12 16:34:00
12:54 PM,83.1,52.0,34,30.16,10.0,SW,8.1,-,N/A,,Clear,230,2012-07-12 16:54:00
1:15 PM,83.5,53.4,35,30.16,10.0,West,9.2,-,N/A,,Clear,280,2012-07-12 17:15:00
1:34 PM,82.8,53.8,37,30.15,10.0,WNW,10.4,-,N/A,,Clear,290,2012-07-12 17:34:00
1:54 PM,82.9,53.1,36,30.15,10.0,West,10.4,-,N/A,,Clear,280,2012-07-12 17:54:00
2:14 PM,82.8,52.3,35,30.14,10.0,West,10.4,-,N/A,,Clear,280,2012-07-12 18:14:00
2:34 PM,83.1,52.3,34,30.14,10.0,WNW,9.2,-,N/A,,Clear,290,2012-07-12 18:34:00
2:55 PM,83.3,52.0,34,30.14,10.0,WNW,10.4,-,N/A,,Clear,290,2012-07-12 18:55:00
3:14 PM,82.4,50.9,33,30.13,10.0,WNW,9.2,-,N/A,,Clear,290,2012-07-12 19:14:00
3:34 PM,82.8,51.6,34,30.12,10.0,WNW,10.4,-,N/A,,Clear,300,2012-07-12 19:34:00
3:55 PM,82.4,51.6,34,30.12,10.0,WNW,10.4,-,N/A,,Clear,300,2012-07-12 19:55:00
4:14 PM,82.0,51.6,35,30.12,10.0,WNW,8.1,-,N/A,,Clear,300,2012-07-12 20:14:00
4:34 PM,82.8,52.2,35,30.12,10.0,West,9.2,-,N/A,,Clear,270,2012-07-12 20:34:00
4:55 PM,82.8,52.2,35,30.12,10.0,WNW,10.4,-,N/A,,Clear,290,2012-07-12 20:55:00
5:14 PM,80.4,58.5,47,30.12,10.0,NNW,8.1,-,N/A,,Clear,330,2012-07-12 21:14:00
5:34 PM,78.3,59.7,53,30.12,10.0,NW,5.8,-,N/A,,Clear,320,2012-07-12 21:34:00
5:55 PM,78.1,58.8,51,30.12,10.0,NNW,6.9,-,N/A,,Clear,330,2012-07-12 21:55:00
6:14 PM,77.5,57.9,51,30.12,10.0,NNW,4.6,-,N/A,,Clear,340,2012-07-12 22:14:00
6:34 PM,77.9,55.9,47,30.12,10.0,NNW,4.6,-,N/A,,Clear,330,2012-07-12 22:34:00
6:55 PM,77.9,54.7,45,30.12,10.0,North,3.5,-,N/A,,Clear,350,2012-07-12 22:55:00
7:14 PM,77.9,53.1,42,30.12,10.0,NW,3.5,-,N/A,,Clear,320,2012-07-12 23:14:00
7:34 PM,78.1,53.4,42,30.11,10.0,Calm,Calm,-,N/A,,Clear,0,2012-07-12 23:34:00
7:54 PM,77.9,52.2,41,30.10,10.0,Calm,Calm,-,N/A,,Clear,0,2012-07-12 23:54:00
8:14 PM,77.5,51.1,40,30.10,10.0,Calm,Calm,-,N/A,,Clear,0,2012-07-13 00:14:00
8:34 PM,77.5,53.1,42,30.10,10.0,Calm,Calm,-,N/A,,Clear,0,2012-07-13 00:34:00
8:54 PM,75.9,53.6,46,30.10,10.0,Calm,Calm,-,N/A,,Clear,0,2012-07-13 00:54:00
9:14 PM,73.2,58.8,61,30.10,10.0,Calm,Calm,-,N/A,,Clear,0,2012-07-13 01:14:00
9:35 PM,69.8,59.5,70,30.10,10.0,SSE,3.5,-,N/A,,Clear,150,2012-07-13 01:35:00
9:54 PM,69.6,58.6,68,30.10,10.0,SSE,3.5,-,N/A,,Clear,150,2012-07-13 01:54:00
10:14 PM,68.4,58.8,71,30.10,10.0,SSE,5.8,-,N/A,,Clear,150,2012-07-13 02:14:00
10:35 PM,68.4,57.6,68,30.10,10.0,SSE,3.5,-,N/A,,Clear,160,2012-07-13 02:35:00
10:54 PM,68.0,57.2,68,30.10,10.0,SE,3.5,-,N/A,,Clear,140,2012-07-13 02:54:00
11:15 PM,67.8,56.7,67,30.10,10.0,Calm,Calm,-,N/A,,Clear,0,2012-07-13 03:15:00
11:34 PM,65.8,57.2,74,30.12,10.0,Calm,Calm,-,N/A,,Clear,0,2012-07-13 03:34:00
11:54 PM,65.3,56.5,73,30.12,10.0,Calm,Calm,-,N/A,,Clear,0,2012-07-13 03:54:00